Time;durP1;ratioP1;P1;durP2;ratioP2;P2;SDS_P1;SDS_P2;PMS_P1;PMS_P2;Temp;Humidity;BMP_temperature;BMP_pressure;BME280_temperature;BME280_humidity;BME280_pressure;Samples;Min_cycle;Max_cycle;Signal;HPM_P1;HPM_P2
2023/06/15 00:02:15;;;;;;;10.40;2.13;;;16.10;99.90;;;;;;5117321;28;20253;-44
2023/06/15 00:04:41;;;;;;;7.40;2.10;;;16.00;99.90;;;;;;5116418;28;20618;-44
2023/06/15 00:07:07;;;;;;;4.77;2.57;;;15.90;99.90;;;;;;5114901;28;20307;-45
2023/06/15 00:09:33;;;;;;;12.30;2.30;;;15.80;99.90;;;;;;5116515;28;20261;-44
2023/06/15 00:11:59;;;;;;;7.27;2.20;;;15.80;99.90;;;;;;5116496;28;20183;-43
2023/06/15 00:14:24;;;;;;;6.93;2.70;;;15.70;99.90;;;;;;5116384;28;20194;-43
2023/06/15 00:16:52;;;;;;;4.47;2.10;;;15.60;99.90;;;;;;5116260;28;20171;-43
2023/06/15 00:19:21;;;;;;;7.23;2.67;;;15.60;99.90;;;;;;5116459;28;20173;-43
2023/06/15 00:21:48;;;;;;;7.47;2.47;;;15.50;99.90;;;;;;5115988;28;20538;-45
2023/06/15 00:24:16;;;;;;;6.13;2.43;;;15.50;99.90;;;;;;5116174;28;20561;-44
2023/06/15 00:26:43;;;;;;;6.27;2.53;;;15.40;99.90;;;;;;5115840;28;20204;-44
2023/06/15 00:29:09;;;;;;;6.27;2.60;;;15.40;99.90;;;;;;5116136;28;20162;-44
2023/06/15 00:31:35;;;;;;;5.90;2.40;;;15.30;99.90;;;;;;5115841;28;20176;-43
2023/06/15 00:34:01;;;;;;;12.53;2.60;;;15.30;99.90;;;;;;5116097;28;20277;-43
2023/06/15 00:36:27;;;;;;;8.93;2.97;;;15.20;99.90;;;;;;5115646;28;20175;-43
2023/06/15 00:38:52;;;;;;;4.27;2.10;;;15.20;99.90;;;;;;5115768;28;20241;-43
2023/06/15 00:41:18;;;;;;;4.57;2.30;;;15.20;99.90;;;;;;5116195;28;20197;-42
2023/06/15 00:43:43;;;;;;;4.97;2.20;;;15.10;99.90;;;;;;5115592;28;20214;-44
2023/06/15 00:46:10;;;;;;;5.10;2.37;;;15.10;99.90;;;;;;5115537;28;20635;-44
2023/06/15 00:48:36;;;;;;;6.17;2.23;;;15.10;99.90;;;;;;5115530;28;20654;-42
2023/06/15 00:51:03;;;;;;;5.73;2.33;;;15.10;99.90;;;;;;5115690;28;20175;-42
2023/06/15 00:53:29;;;;;;;4.27;2.30;;;15.10;99.90;;;;;;5115349;28;20177;-45
2023/06/15 00:55:55;;;;;;;5.90;2.37;;;15.00;99.90;;;;;;5115348;28;20175;-46
2023/06/15 00:58:21;;;;;;;2.80;1.73;;;15.00;99.90;;;;;;5115559;28;20181;-44
2023/06/15 01:00:49;;;;;;;4.57;2.20;;;15.00;99.90;;;;;;5115569;28;20174;-43
2023/06/15 01:03:24;;;;;;;8.53;2.40;;;14.90;99.90;;;;;;5115281;28;20536;-41
2023/06/15 01:05:52;;;;;;;5.60;2.43;;;14.90;99.90;;;;;;5115358;28;20475;-44
2023/06/15 01:08:20;;;;;;;7.17;2.47;;;14.90;99.90;;;;;;5115417;28;20234;-43
2023/06/15 01:10:47;;;;;;;6.13;2.30;;;14.80;99.90;;;;;;5115455;28;20249;-43
2023/06/15 01:13:13;;;;;;;5.77;1.97;;;14.80;99.90;;;;;;5115254;28;20213;-44
2023/06/15 01:15:43;;;;;;;4.60;2.10;;;14.80;99.90;;;;;;5115712;28;20178;-42
2023/06/15 01:18:08;;;;;;;7.73;2.33;;;14.80;99.90;;;;;;5116121;28;20260;-43
2023/06/15 01:20:42;;;;;;;5.07;1.93;;;14.80;99.90;;;;;;5116113;28;20221;-44
2023/06/15 01:23:29;;;;;;;3.43;2.07;;;14.70;99.90;;;;;;5115122;28;20178;-41
2023/06/15 01:26:07;;;;;;;6.90;2.13;;;14.70;99.90;;;;;;5114982;28;20284;-43
2023/06/15 01:28:45;;;;;;;6.23;2.50;;;14.70;99.90;;;;;;5114584;28;20201;-43
2023/06/15 01:31:11;;;;;;;3.03;1.97;;;14.60;99.90;;;;;;5114640;28;20162;-40
2023/06/15 01:33:48;;;;;;;4.43;2.10;;;14.60;99.90;;;;;;5114333;28;20601;-42
2023/06/15 01:36:14;;;;;;;4.30;2.40;;;14.50;99.90;;;;;;5114821;28;20261;-42
2023/06/15 01:38:40;;;;;;;5.20;2.00;;;14.50;99.90;;;;;;5114423;28;20698;-43
2023/06/15 01:41:08;;;;;;;5.37;2.37;;;14.50;99.90;;;;;;5114536;27;20248;-43
2023/06/15 01:43:35;;;;;;;6.53;2.10;;;14.40;99.90;;;;;;5114611;28;20194;-43
2023/06/15 01:46:02;;;;;;;6.10;2.53;;;14.30;99.90;;;;;;5114600;28;20511;-42
2023/06/15 01:48:28;;;;;;;4.00;2.30;;;14.30;99.90;;;;;;5114286;28;20294;-43
2023/06/15 01:50:55;;;;;;;3.77;1.93;;;14.30;99.90;;;;;;5114520;28;20174;-41
2023/06/15 01:53:21;;;;;;;5.67;2.60;;;14.20;99.90;;;;;;5114174;28;20170;-43
2023/06/15 01:55:47;;;;;;;4.90;2.23;;;14.20;99.90;;;;;;5114546;28;20635;-42
2023/06/15 01:58:16;;;;;;;4.73;2.30;;;14.20;99.90;;;;;;5114196;28;20174;-42
2023/06/15 02:00:46;;;;;;;5.33;2.30;;;14.10;99.90;;;;;;5114395;28;20181;-48
2023/06/15 02:03:12;;;;;;;2.67;2.00;;;14.10;99.90;;;;;;5114413;28;20185;-48
2023/06/15 02:05:41;;;;;;;3.87;1.80;;;14.00;99.90;;;;;;5114005;28;20209;-47
2023/06/15 02:08:10;;;;;;;7.43;2.40;;;13.90;99.90;;;;;;5113904;28;20202;-47
2023/06/15 02:10:38;;;;;;;3.13;2.10;;;13.90;99.90;;;;;;5113907;28;20202;-47
2023/06/15 02:13:07;;;;;;;4.63;2.20;;;13.80;99.90;;;;;;5114252;28;20174;-44
2023/06/15 02:15:33;;;;;;;4.97;2.27;;;13.80;99.90;;;;;;5113861;28;20227;-41
2023/06/15 02:18:02;;;;;;;3.37;2.30;;;13.70;99.90;;;;;;5113915;28;20174;-43
2023/06/15 02:20:29;;;;;;;7.27;2.57;;;13.70;99.90;;;;;;5113919;28;20174;-44
2023/06/15 02:22:57;;;;;;;3.10;2.47;;;13.60;99.90;;;;;;5114308;28;20230;-42
2023/06/15 02:25:24;;;;;;;3.57;2.30;;;13.60;99.90;;;;;;5113748;28;20266;-43
2023/06/15 02:27:50;;;;;;;4.77;2.30;;;13.50;99.90;;;;;;5113727;28;20197;-43
2023/06/15 02:30:16;;;;;;;4.80;2.50;;;13.50;99.90;;;;;;5114601;28;20216;-42
2023/06/15 02:32:42;;;;;;;4.63;2.43;;;13.40;99.90;;;;;;5113960;28;20269;-43
2023/06/15 02:35:11;;;;;;;3.10;2.33;;;13.40;99.90;;;;;;5114678;28;20189;-41
2023/06/15 02:37:37;;;;;;;3.27;2.27;;;13.30;99.90;;;;;;5113714;28;20190;-41
2023/06/15 02:40:04;;;;;;;4.60;2.43;;;13.30;99.90;;;;;;5113696;28;20194;-42
2023/06/15 02:42:30;;;;;;;5.67;2.17;;;13.30;99.90;;;;;;5113985;28;20174;-41
2023/06/15 02:44:55;;;;;;;6.70;2.20;;;13.30;99.90;;;;;;5114755;28;20277;-43
2023/06/15 02:47:22;;;;;;;4.90;2.60;;;13.20;99.90;;;;;;5118174;28;20225;-41
2023/06/15 02:49:47;;;;;;;4.70;2.17;;;13.20;99.90;;;;;;5117914;28;20254;-42
2023/06/15 02:52:13;;;;;;;5.70;3.00;;;13.10;99.90;;;;;;5117802;28;20206;-41
2023/06/15 02:54:39;;;;;;;4.37;2.43;;;13.10;99.90;;;;;;5117681;28;20190;-44
2023/06/15 02:57:08;;;;;;;7.20;2.23;;;13.10;99.90;;;;;;5117568;28;20178;-43
2023/06/15 02:59:35;;;;;;;4.60;2.30;;;13.10;99.90;;;;;;5117918;28;20205;-41
2023/06/15 03:02:04;;;;;;;6.00;2.37;;;13.10;99.90;;;;;;5117603;27;20636;-40
2023/06/15 03:04:32;;;;;;;5.47;2.27;;;13.10;99.90;;;;;;5117319;28;20202;-43
2023/06/15 03:06:58;;;;;;;5.60;2.50;;;13.00;99.90;;;;;;5117736;28;20212;-45
2023/06/15 03:09:25;;;;;;;4.83;2.20;;;13.00;99.90;;;;;;5117534;28;20632;-46
2023/06/15 03:11:50;;;;;;;3.23;2.10;;;13.00;99.90;;;;;;5117408;28;20220;-46
2023/06/15 03:14:18;;;;;;;5.27;2.37;;;13.00;99.90;;;;;;5117341;27;20188;-46
2023/06/15 03:16:47;;;;;;;4.60;1.93;;;13.00;99.90;;;;;;5117478;28;20319;-46
2023/06/15 03:19:15;;;;;;;4.17;2.30;;;12.90;99.90;;;;;;5116041;28;20663;-47
2023/06/15 03:21:41;;;;;;;4.30;2.10;;;12.90;99.90;;;;;;5117494;28;20175;-46
2023/06/15 03:24:08;;;;;;;9.07;2.40;;;12.90;99.90;;;;;;5117068;28;20283;-46
2023/06/15 03:26:38;;;;;;;8.20;2.00;;;12.90;99.90;;;;;;5116989;28;20188;-46
2023/06/15 03:29:04;;;;;;;11.43;2.60;;;12.80;99.90;;;;;;5117051;28;20167;-46
2023/06/15 03:31:33;;;;;;;6.77;2.40;;;12.80;99.90;;;;;;5117294;27;20582;-47
2023/06/15 03:34:01;;;;;;;2.73;2.10;;;12.80;99.90;;;;;;5117004;28;20312;-46
2023/06/15 03:36:31;;;;;;;4.67;2.20;;;12.80;99.90;;;;;;5117298;28;20235;-46
2023/06/15 03:38:57;;;;;;;4.40;2.00;;;12.70;99.90;;;;;;5116411;28;20524;-48
2023/06/15 03:41:26;;;;;;;4.33;2.07;;;12.70;99.90;;;;;;5116016;28;20181;-46
2023/06/15 03:43:52;;;;;;;5.77;2.20;;;12.70;99.90;;;;;;5115719;28;20194;-47
2023/06/15 03:46:17;;;;;;;5.07;2.10;;;12.70;99.90;;;;;;5115686;28;20171;-47
2023/06/15 03:48:43;;;;;;;4.93;2.30;;;12.70;99.90;;;;;;5114598;28;20212;-45
2023/06/15 03:51:08;;;;;;;4.57;2.50;;;12.70;99.90;;;;;;5115568;28;20182;-47
2023/06/15 03:53:35;;;;;;;5.40;2.50;;;12.70;99.90;;;;;;5115632;28;20218;-46
2023/06/15 03:56:01;;;;;;;4.60;2.33;;;12.70;99.90;;;;;;5115244;28;20248;-46
2023/06/15 03:58:26;;;;;;;4.23;2.70;;;12.70;99.90;;;;;;5114073;28;20190;-45
2023/06/15 04:00:52;;;;;;;4.20;2.13;;;12.80;99.90;;;;;;5115240;28;20186;-47
2023/06/15 04:03:18;;;;;;;4.37;1.97;;;12.80;99.90;;;;;;5113808;28;20551;-47
2023/06/15 04:05:45;;;;;;;6.90;2.30;;;12.70;99.90;;;;;;5115451;28;20180;-46
2023/06/15 04:08:11;;;;;;;3.90;2.57;;;12.70;99.90;;;;;;5115389;28;20205;-47
2023/06/15 04:10:36;;;;;;;6.57;2.60;;;12.70;99.90;;;;;;5115336;28;20172;-47
2023/06/15 04:13:03;;;;;;;3.30;2.10;;;12.70;99.90;;;;;;5115104;28;20185;-46
2023/06/15 04:15:28;;;;;;;3.30;2.17;;;12.70;99.90;;;;;;5114919;28;20199;-45
2023/06/15 04:17:54;;;;;;;6.03;2.60;;;12.70;99.90;;;;;;5115381;28;20185;-46
2023/06/15 04:20:21;;;;;;;5.43;2.00;;;12.70;99.90;;;;;;5114910;28;20178;-46
2023/06/15 04:22:46;;;;;;;7.23;2.30;;;12.80;99.90;;;;;;5115067;28;20170;-46
2023/06/15 04:25:12;;;;;;;5.13;2.47;;;12.80;99.90;;;;;;5115074;28;20213;-47
2023/06/15 04:27:39;;;;;;;4.90;2.10;;;12.80;99.90;;;;;;5115032;28;20205;-46
2023/06/15 04:30:06;;;;;;;7.30;2.47;;;12.90;99.90;;;;;;5114823;28;20206;-45
2023/06/15 04:32:32;;;;;;;8.67;2.40;;;12.90;99.90;;;;;;5114755;28;20174;-46
2023/06/15 04:34:59;;;;;;;6.97;2.60;;;12.90;99.90;;;;;;5114680;28;20275;-45
2023/06/15 04:37:28;;;;;;;5.10;2.50;;;13.00;99.90;;;;;;5077343;28;1074401;-46
2023/06/15 04:39:56;;;;;;;12.93;3.83;;;13.10;99.90;;;;;;5116036;28;20187;-48
2023/06/15 04:42:23;;;;;;;9.03;2.83;;;13.10;99.90;;;;;;5116039;28;20554;-47
2023/06/15 04:44:49;;;;;;;6.67;3.20;;;13.20;99.90;;;;;;5115766;28;20194;-46
2023/06/15 04:47:14;;;;;;;6.70;3.13;;;13.20;99.90;;;;;;5115443;28;20210;-43
2023/06/15 04:49:41;;;;;;;9.53;3.47;;;13.30;99.90;;;;;;5115523;28;20185;-41
2023/06/15 04:52:08;;;;;;;12.27;3.00;;;13.40;99.90;;;;;;5115714;28;20182;-44
2023/06/15 04:54:34;;;;;;;9.77;3.03;;;13.50;99.90;;;;;;5115473;28;20723;-43
2023/06/15 04:56:59;;;;;;;9.33;3.70;;;13.60;99.90;;;;;;5115633;27;20187;-42
2023/06/15 04:59:25;;;;;;;10.97;3.03;;;13.70;99.90;;;;;;5115258;28;20174;-43
2023/06/15 05:01:50;;;;;;;10.57;3.83;;;13.80;99.90;;;;;;5115220;28;20170;-42
2023/06/15 05:04:16;;;;;;;9.77;3.33;;;13.80;99.90;;;;;;5115123;28;20201;-42
2023/06/15 05:06:42;;;;;;;6.83;3.30;;;13.90;99.90;;;;;;5115169;28;20707;-41
2023/06/15 05:09:08;;;;;;;5.93;3.00;;;14.00;99.90;;;;;;5114608;28;20174;-42
2023/06/15 05:11:33;;;;;;;6.00;3.07;;;14.10;99.90;;;;;;5115618;28;20174;-43
2023/06/15 05:13:59;;;;;;;8.07;3.10;;;14.20;99.90;;;;;;5115016;28;20190;-42
2023/06/15 05:16:24;;;;;;;11.03;2.70;;;14.20;99.90;;;;;;5115052;28;20231;-41
2023/06/15 05:18:52;;;;;;;13.37;3.40;;;14.30;99.90;;;;;;5114969;28;20178;-44
2023/06/15 05:21:18;;;;;;;14.73;3.93;;;14.40;99.90;;;;;;5115253;28;20174;-43
2023/06/15 05:23:44;;;;;;;17.53;3.73;;;14.50;99.90;;;;;;5114858;28;20564;-43
2023/06/15 05:26:11;;;;;;;14.03;4.37;;;14.60;99.90;;;;;;5114415;28;20174;-42
2023/06/15 05:28:36;;;;;;;13.43;4.30;;;14.80;99.90;;;;;;5114796;28;20213;-45
2023/06/15 05:31:02;;;;;;;16.33;4.17;;;14.90;99.90;;;;;;5114816;28;20177;-40
2023/06/15 05:33:28;;;;;;;14.60;3.80;;;15.00;99.90;;;;;;5114839;28;20579;-41
2023/06/15 05:35:53;;;;;;;12.63;3.83;;;15.10;99.90;;;;;;5114782;28;20520;-45
2023/06/15 05:38:20;;;;;;;7.80;3.37;;;15.20;99.90;;;;;;5114602;28;20194;-42
2023/06/15 05:40:46;;;;;;;7.80;3.90;;;15.30;99.90;;;;;;5114851;28;20186;-45
2023/06/15 05:43:11;;;;;;;8.57;3.47;;;15.50;99.90;;;;;;5114726;28;20183;-43
2023/06/15 05:45:37;;;;;;;14.50;3.50;;;15.60;99.90;;;;;;5114617;28;20270;-43
2023/06/15 05:48:02;;;;;;;10.20;3.73;;;15.70;99.90;;;;;;5114397;28;20221;-44
2023/06/15 05:50:29;;;;;;;12.53;4.03;;;15.80;99.90;;;;;;5114406;28;20181;-44
2023/06/15 05:52:55;;;;;;;9.63;3.57;;;15.90;99.90;;;;;;5114637;28;20178;-44
2023/06/15 05:55:20;;;;;;;11.23;3.60;;;16.10;99.90;;;;;;5114544;28;20194;-43
2023/06/15 05:57:46;;;;;;;7.30;3.47;;;16.20;99.90;;;;;;5114535;28;20305;-43
2023/06/15 06:00:12;;;;;;;7.57;3.93;;;16.30;99.90;;;;;;5114112;28;20185;-41
2023/06/15 06:02:38;;;;;;;11.60;3.73;;;16.50;99.90;;;;;;5114428;28;20174;-42
2023/06/15 06:05:04;;;;;;;7.90;3.37;;;16.70;99.90;;;;;;5114211;28;20209;-44
2023/06/15 06:07:29;;;;;;;8.73;3.30;;;16.90;99.90;;;;;;5114170;28;20227;-43
2023/06/15 06:09:55;;;;;;;8.87;3.17;;;17.10;99.90;;;;;;5114428;28;20218;-43
2023/06/15 06:12:20;;;;;;;11.07;3.60;;;17.40;99.90;;;;;;5114119;28;20181;-43
2023/06/15 06:14:46;;;;;;;11.77;3.70;;;17.60;99.90;;;;;;5112811;28;20198;-44
2023/06/15 06:17:12;;;;;;;5.97;3.13;;;18.00;99.90;;;;;;5114228;28;20278;-44
2023/06/15 06:19:37;;;;;;;9.03;3.33;;;18.20;99.90;;;;;;5113848;28;20182;-44
2023/06/15 06:22:03;;;;;;;8.93;3.63;;;18.50;99.90;;;;;;5114103;28;20185;-43
2023/06/15 06:24:28;;;;;;;9.73;3.83;;;18.80;99.90;;;;;;5113741;28;20281;-44
2023/06/15 06:26:54;;;;;;;12.50;2.93;;;19.00;99.90;;;;;;5114299;28;20233;-43
2023/06/15 06:29:19;;;;;;;8.47;3.80;;;19.10;99.90;;;;;;5113840;28;20668;-43
2023/06/15 06:31:45;;;;;;;7.53;3.03;;;19.30;99.90;;;;;;5114436;28;20171;-42
2023/06/15 06:34:11;;;;;;;6.27;3.10;;;19.60;99.90;;;;;;5114300;28;20196;-43
2023/06/15 06:36:36;;;;;;;5.43;2.60;;;19.90;99.90;;;;;;5114084;28;20173;-44
2023/06/15 06:39:02;;;;;;;6.20;2.90;;;20.30;99.90;;;;;;5113871;28;20536;-43
2023/06/15 06:41:27;;;;;;;6.87;2.90;;;20.50;99.90;;;;;;5113818;28;20170;-41
2023/06/15 06:43:53;;;;;;;5.77;2.87;;;20.80;99.90;;;;;;5113624;28;20190;-42
2023/06/15 06:46:18;;;;;;;3.30;2.60;;;20.80;99.90;;;;;;5113651;28;20200;-44
2023/06/15 06:48:44;;;;;;;6.43;2.70;;;21.00;99.90;;;;;;5113837;28;20234;-43
2023/06/15 06:51:10;;;;;;;4.80;2.80;;;21.20;99.90;;;;;;5113833;28;20170;-43
2023/06/15 06:53:35;;;;;;;4.77;3.07;;;21.40;99.90;;;;;;5113557;28;20678;-42
2023/06/15 06:56:01;;;;;;;5.50;2.70;;;21.50;99.90;;;;;;5113769;28;20201;-42
2023/06/15 06:58:27;;;;;;;3.93;2.67;;;21.50;99.90;;;;;;5113533;28;20253;-44
2023/06/15 07:00:53;;;;;;;3.87;2.60;;;21.60;99.90;;;;;;5113838;28;20216;-41
2023/06/15 07:03:19;;;;;;;3.33;2.60;;;21.80;99.90;;;;;;5113480;28;20594;-42
2023/06/15 07:05:46;;;;;;;3.10;2.23;;;21.90;99.90;;;;;;5113810;28;20170;-42
2023/06/15 07:08:11;;;;;;;10.93;2.40;;;21.90;99.90;;;;;;5112141;28;20678;-43
2023/06/15 07:10:37;;;;;;;4.03;2.30;;;22.00;99.90;;;;;;5113674;28;20182;-41
2023/06/15 07:13:03;;;;;;;6.87;3.10;;;22.20;99.90;;;;;;5113679;28;20166;-43
2023/06/15 07:15:31;;;;;;;6.07;2.53;;;22.40;99.90;;;;;;5113523;28;20190;-43
2023/06/15 07:17:57;;;;;;;5.03;2.37;;;22.60;99.90;;;;;;5113626;28;20189;-42
2023/06/15 07:20:22;;;;;;;3.83;2.50;;;22.80;99.90;;;;;;5113602;28;20216;-43
2023/06/15 07:22:48;;;;;;;5.07;2.17;;;22.80;99.90;;;;;;5113337;28;20192;-42
2023/06/15 07:25:13;;;;;;;4.17;2.40;;;22.90;99.90;;;;;;5113428;28;20198;-42
2023/06/15 07:27:39;;;;;;;3.67;2.40;;;22.90;99.90;;;;;;5113225;28;20204;-41
2023/06/15 07:30:05;;;;;;;6.63;2.50;;;22.90;99.90;;;;;;5114111;28;20205;-42
2023/06/15 07:32:31;;;;;;;4.67;2.57;;;23.10;99.90;;;;;;5117439;28;20542;-43
2023/06/15 07:34:56;;;;;;;5.73;2.73;;;23.20;99.90;;;;;;5117268;28;20269;-44
2023/06/15 07:37:22;;;;;;;3.70;2.23;;;23.30;99.90;;;;;;5117691;28;20223;-42
2023/06/15 07:39:47;;;;;;;8.97;2.87;;;23.30;99.90;;;;;;5117117;28;20177;-43
2023/06/15 07:42:13;;;;;;;3.27;2.43;;;23.40;99.90;;;;;;5117006;28;20186;-42
2023/06/15 07:44:39;;;;;;;4.33;2.47;;;23.50;99.90;;;;;;5116872;28;20198;-43
2023/06/15 07:47:06;;;;;;;3.17;2.60;;;23.70;99.90;;;;;;5116787;28;20208;-43
2023/06/15 07:49:31;;;;;;;2.70;2.47;;;23.90;99.90;;;;;;5116934;28;20170;-42
2023/06/15 07:51:57;;;;;;;3.80;2.17;;;24.00;99.90;;;;;;5116872;28;20177;-43
2023/06/15 07:54:22;;;;;;;3.10;2.40;;;24.10;99.90;;;;;;5116689;28;20278;-44
2023/06/15 07:56:48;;;;;;;2.50;2.23;;;24.10;99.90;;;;;;5116972;28;20583;-42
2023/06/15 07:59:14;;;;;;;4.03;2.27;;;24.20;99.90;;;;;;5116519;28;20555;-44
2023/06/15 08:01:39;;;;;;;8.83;2.53;;;24.20;99.90;;;;;;5116693;28;20610;-43
2023/06/15 08:04:05;;;;;;;5.23;2.67;;;24.30;99.90;;;;;;5116331;28;20193;-43
2023/06/15 08:06:30;;;;;;;4.03;2.60;;;24.30;99.90;;;;;;5116342;28;20171;-43
2023/06/15 08:08:56;;;;;;;4.80;2.23;;;24.40;99.90;;;;;;5116262;28;20174;-43
2023/06/15 08:11:22;;;;;;;3.13;2.73;;;24.40;99.90;;;;;;5116272;28;20174;-43
2023/06/15 08:13:47;;;;;;;3.40;2.20;;;24.50;99.90;;;;;;5116446;28;20198;-44
2023/06/15 08:16:13;;;;;;;4.53;2.23;;;24.60;99.90;;;;;;5116396;28;20178;-43
2023/06/15 08:18:38;;;;;;;4.13;2.40;;;24.70;99.90;;;;;;5116382;28;20193;-45
2023/06/15 08:21:04;;;;;;;5.73;2.47;;;24.80;99.90;;;;;;5116068;28;20181;-45
2023/06/15 08:23:30;;;;;;;3.57;2.20;;;24.90;99.90;;;;;;5116223;28;20609;-43
2023/06/15 08:25:55;;;;;;;4.47;2.40;;;25.00;99.90;;;;;;5116144;28;20178;-44
2023/06/15 08:28:21;;;;;;;4.17;2.30;;;25.20;99.90;;;;;;5115936;28;20205;-43
2023/06/15 08:30:47;;;;;;;5.57;2.67;;;25.20;99.90;;;;;;5116132;28;20205;-43
2023/06/15 08:33:13;;;;;;;3.83;2.53;;;25.40;99.90;;;;;;5115887;28;20269;-46
2023/06/15 08:35:38;;;;;;;5.53;2.50;;;25.50;99.90;;;;;;5115894;28;20182;-45
2023/06/15 08:38:04;;;;;;;3.27;2.37;;;25.50;99.90;;;;;;5115739;28;20201;-43
2023/06/15 08:40:30;;;;;;;3.10;2.17;;;25.60;99.90;;;;;;5115878;28;20174;-42
2023/06/15 08:42:58;;;;;;;10.93;2.67;;;25.70;99.90;;;;;;5114601;28;20210;-45
2023/06/15 08:45:32;;;;;;;6.77;2.80;;;25.80;99.90;;;;;;5115609;27;20204;-43
2023/06/15 08:48:00;;;;;;;3.73;2.37;;;25.80;99.90;;;;;;5115564;28;20223;-44
2023/06/15 08:50:26;;;;;;;3.63;2.63;;;25.90;99.90;;;;;;5114282;28;20223;-43
2023/06/15 08:52:51;;;;;;;7.57;2.80;;;26.00;99.90;;;;;;5115510;28;20575;-43
2023/06/15 08:55:18;;;;;;;4.37;2.63;;;26.10;99.90;;;;;;5115514;28;20198;-42
2023/06/15 08:57:43;;;;;;;2.87;2.40;;;26.20;99.90;;;;;;5114477;28;20189;-44
2023/06/15 09:00:10;;;;;;;12.43;2.60;;;26.20;99.90;;;;;;5115429;28;20178;-45
2023/06/15 09:02:43;;;;;;;7.47;2.70;;;26.40;99.90;;;;;;5115516;28;20186;-44
2023/06/15 09:05:09;;;;;;;5.67;2.77;;;26.60;99.90;;;;;;5115166;28;20737;-46
2023/06/15 09:07:35;;;;;;;6.13;2.40;;;26.60;99.90;;;;;;5115339;28;20308;-43
2023/06/15 09:10:20;;;;;;;3.90;2.70;;;26.60;99.90;;;;;;5115475;28;20178;-45
2023/06/15 09:12:50;;;;;;;5.97;2.47;;;26.90;99.90;;;;;;5115433;28;20166;-44
2023/06/15 09:15:27;;;;;;;3.40;2.70;;;27.00;99.90;;;;;;5115330;28;20201;-45
2023/06/15 09:17:54;;;;;;;7.97;2.67;;;27.00;99.90;;;;;;5115208;28;20197;-43
2023/06/15 09:20:22;;;;;;;4.10;2.27;;;27.10;99.90;;;;;;5115142;28;20177;-45
2023/06/15 09:22:48;;;;;;;4.43;2.47;;;27.20;99.90;;;;;;5114837;28;20174;-45
2023/06/15 09:25:21;;;;;;;4.40;2.57;;;27.30;99.90;;;;;;5114560;28;20612;-44
2023/06/15 09:28:06;;;;;;;4.17;2.50;;;27.40;99.90;;;;;;5114690;28;20198;-44
2023/06/15 09:30:39;;;;;;;4.90;2.63;;;27.50;99.90;;;;;;5115116;28;20532;-44
2023/06/15 09:33:12;;;;;;;2.83;2.10;;;27.70;99.90;;;;;;5114932;28;20178;-45
2023/06/15 09:35:54;;;;;;;5.15;2.53;;;27.70;99.90;;;;;;5114928;28;20185;-44
2023/06/15 09:38:19;;;;;;;4.50;2.60;;;27.60;99.90;;;;;;5114487;28;20656;-44
2023/06/15 09:40:45;;;;;;;3.58;2.80;;;27.60;99.90;;;;;;5114579;28;20243;-44
2023/06/15 09:43:12;;;;;;;5.70;2.55;;;27.70;99.90;;;;;;5114511;28;20169;-44
2023/06/15 09:45:54;;;;;;;5.63;2.60;;;27.80;99.90;;;;;;5114612;28;20238;-45
2023/06/15 09:48:21;;;;;;;4.75;2.20;;;27.90;99.90;;;;;;5114406;28;20231;-45
2023/06/15 09:50:53;;;;;;;4.60;2.53;;;28.10;99.90;;;;;;5114590;28;20181;-44
2023/06/15 09:53:19;;;;;;;8.02;2.50;;;28.10;99.90;;;;;;5114030;28;20236;-44
2023/06/15 09:55:46;;;;;;;3.95;2.28;;;28.00;96.60;;;;;;5114511;28;20634;-46
2023/06/15 09:58:12;;;;;;;4.70;2.70;;;27.80;95.80;;;;;;5114557;28;20219;-46
2023/06/15 10:00:38;;;;;;;7.97;3.10;;;27.70;98.00;;;;;;5114180;28;20186;-44
2023/06/15 10:03:08;;;;;;;8.90;2.90;;;27.60;94.40;;;;;;5114084;28;20174;-46
2023/06/15 10:05:39;;;;;;;7.25;2.80;;;27.40;95.80;;;;;;5114303;28;20195;-45
2023/06/15 10:08:08;;;;;;;5.03;2.45;;;27.40;95.80;;;;;;5114042;28;20194;-45
2023/06/15 10:10:39;;;;;;;5.18;2.35;;;27.40;98.00;;;;;;5114298;28;20177;-44
2023/06/15 10:13:08;;;;;;;6.65;2.60;;;27.50;98.70;;;;;;5114132;28;20159;-44
2023/06/15 10:15:34;;;;;;;3.88;2.42;;;27.70;99.80;;;;;;5113838;28;20190;-45
2023/06/15 10:18:03;;;;;;;3.22;2.50;;;27.90;99.90;;;;;;5114234;28;20198;-51
2023/06/15 10:20:29;;;;;;;5.53;2.75;;;28.10;99.90;;;;;;5114374;28;20178;-45
2023/06/15 10:23:13;;;;;;;6.60;2.42;;;28.10;99.90;;;;;;5113871;28;20537;-45
2023/06/15 10:25:42;;;;;;;6.10;2.78;;;28.20;97.30;;;;;;5114134;28;20204;-44
2023/06/15 10:28:12;;;;;;;5.65;2.63;;;28.10;96.80;;;;;;5114011;28;20247;-45
2023/06/15 10:30:44;;;;;;;9.07;3.30;;;27.90;94.70;;;;;;5114051;28;20171;-45
2023/06/15 10:33:16;;;;;;;6.72;2.65;;;27.90;94.90;;;;;;5113728;28;20178;-46
2023/06/15 10:35:57;;;;;;;7.75;2.67;;;27.80;95.10;;;;;;5113701;28;20652;-45
2023/06/15 10:38:42;;;;;;;7.15;2.58;;;27.80;97.30;;;;;;5113640;28;20232;-45
2023/06/15 10:41:09;;;;;;;3.85;2.97;;;27.90;96.00;;;;;;5113721;28;20158;-45
2023/06/15 10:43:35;;;;;;;5.75;2.60;;;28.10;97.10;;;;;;5113610;28;20246;-43
2023/06/15 10:46:03;;;;;;;3.30;2.45;;;28.10;95.10;;;;;;5113664;28;20265;-45
2023/06/15 10:48:30;;;;;;;5.57;2.88;;;28.00;96.00;;;;;;5113839;28;20648;-45
2023/06/15 10:51:06;;;;;;;7.97;2.90;;;28.10;97.80;;;;;;5113911;28;20635;-44
2023/06/15 10:53:42;;;;;;;3.78;2.70;;;28.10;97.60;;;;;;5113772;28;20166;-46
2023/06/15 10:56:16;;;;;;;5.13;2.50;;;28.20;97.50;;;;;;5113541;28;20215;-44
2023/06/15 10:59:11;;;;;;;5.75;2.50;;;28.20;96.90;;;;;;5113812;28;20173;-45
2023/06/15 11:01:36;;;;;;;3.95;2.60;;;28.50;97.60;;;;;;5104308;28;20694;-43
2023/06/15 11:04:28;;;;;;;4.88;2.60;;;28.70;94.40;;;;;;5113693;28;20202;-46
2023/06/15 11:07:02;;;;;;;4.40;2.58;;;28.60;93.80;;;;;;5116376;28;20569;-46
2023/06/15 11:09:35;;;;;;;5.70;2.60;;;28.50;92.80;;;;;;5117482;28;20204;-45
2023/06/15 11:12:01;;;;;;;4.85;3.00;;;28.30;93.20;;;;;;5117708;28;20150;-46
2023/06/15 11:14:26;;;;;;;8.57;3.00;;;28.20;92.70;;;;;;5117569;28;20194;-45
2023/06/15 11:17:03;;;;;;;7.60;3.00;;;28.00;91.20;;;;;;5117686;28;20178;-44
2023/06/15 11:19:29;;;;;;;9.20;2.90;;;27.80;91.40;;;;;;5117342;28;20166;-44
2023/06/15 11:22:01;;;;;;;8.95;3.05;;;27.70;93.20;;;;;;5117300;28;20215;-45
2023/06/15 11:24:33;;;;;;;3.50;2.80;;;27.80;93.50;;;;;;5117129;28;20186;-45
2023/06/15 11:27:02;;;;;;;8.25;2.83;;;28.10;94.50;;;;;;5117652;28;20198;-45
2023/06/15 11:29:32;;;;;;;14.48;3.58;;;28.40;94.70;;;;;;5117307;28;20182;-43
2023/06/15 11:32:01;;;;;;;6.55;3.20;;;28.70;94.70;;;;;;5117336;28;20166;-46
2023/06/15 11:34:27;;;;;;;6.90;2.67;;;29.00;95.40;;;;;;5117166;28;20194;-46
2023/06/15 11:36:57;;;;;;;7.00;3.17;;;29.20;95.60;;;;;;5116814;28;20276;-45
2023/06/15 11:39:23;;;;;;;7.95;3.45;;;29.30;95.00;;;;;;5116948;28;20641;-45
2023/06/15 11:41:50;;;;;;;6.25;2.50;;;29.60;94.50;;;;;;5117100;28;20184;-45
2023/06/15 11:44:18;;;;;;;10.65;3.05;;;29.70;93.00;;;;;;5117004;28;20300;-44
2023/06/15 11:46:55;;;;;;;6.20;3.10;;;29.70;94.40;;;;;;5116706;28;20178;-45
2023/06/15 11:49:21;;;;;;;5.47;2.80;;;29.60;90.00;;;;;;5117026;28;20168;-45
2023/06/15 11:51:47;;;;;;;6.10;3.05;;;29.40;89.50;;;;;;5116971;28;20208;-44
2023/06/15 11:54:15;;;;;;;7.97;3.10;;;29.20;89.20;;;;;;5116786;28;20190;-45
2023/06/15 11:56:45;;;;;;;3.33;2.45;;;29.00;84.70;;;;;;5116857;28;20590;-45
2023/06/15 11:59:14;;;;;;;10.25;3.15;;;28.90;89.60;;;;;;5116872;28;20201;-45
2023/06/15 12:01:40;;;;;;;5.95;2.90;;;28.80;82.20;;;;;;5116702;28;20630;-45
2023/06/15 12:04:12;;;;;;;8.48;2.90;;;28.50;83.80;;;;;;5116376;28;20278;-45
2023/06/15 12:06:40;;;;;;;6.50;3.00;;;28.50;85.60;;;;;;5116351;28;20636;-44
2023/06/15 12:09:07;;;;;;;3.25;2.90;;;28.40;83.40;;;;;;5116365;28;20524;-44
2023/06/15 12:11:33;;;;;;;7.20;2.90;;;28.40;83.70;;;;;;5116268;28;20166;-46
2023/06/15 12:14:07;;;;;;;6.13;3.20;;;28.40;86.20;;;;;;5116194;28;20209;-46
2023/06/15 12:16:32;;;;;;;8.55;3.50;;;28.20;86.20;;;;;;5116192;28;20175;-45
2023/06/15 12:18:58;;;;;;;5.72;3.13;;;28.10;86.30;;;;;;5116198;28;20553;-46
2023/06/15 12:21:28;;;;;;;8.95;3.22;;;28.00;90.10;;;;;;5116137;28;20701;-45
2023/06/15 12:23:55;;;;;;;3.47;3.05;;;27.80;86.80;;;;;;5116068;28;20198;-46
2023/06/15 12:26:21;;;;;;;7.78;3.03;;;27.60;88.50;;;;;;5116117;28;20261;-45
2023/06/15 12:28:50;;;;;;;6.47;3.40;;;27.30;87.70;;;;;;5116128;28;20617;-44
2023/06/15 12:31:16;;;;;;;9.02;3.25;;;27.10;88.20;;;;;;5116241;28;20167;-45
2023/06/15 12:33:42;;;;;;;3.85;3.13;;;26.90;89.10;;;;;;5116073;28;20251;-46
2023/06/15 12:36:13;;;;;;;5.10;3.30;;;26.80;88.90;;;;;;5115842;28;20580;-45
2023/06/15 12:38:42;;;;;;;6.30;3.30;;;26.70;88.70;;;;;;5115665;28;20186;-44
2023/06/15 12:41:15;;;;;;;4.05;2.90;;;26.70;90.30;;;;;;5115763;28;20174;-44
2023/06/15 12:43:42;;;;;;;7.38;3.03;;;26.70;89.80;;;;;;5115601;28;20197;-46
2023/06/15 12:46:08;;;;;;;5.80;3.13;;;26.90;91.50;;;;;;5116707;28;20192;-45
2023/06/15 12:48:33;;;;;;;5.50;2.95;;;27.20;90.00;;;;;;5115478;28;20201;-45